createdAt,value
2018-06-25T00:00:48.704Z,20.00
2018-06-25T00:01:48.647Z,17.40
2018-06-25T00:02:48.618Z,20.20
2018-06-25T00:03:48.576Z,19.50
2018-06-25T00:04:48.539Z,20.40
2018-06-25T00:05:48.496Z,17.30
2018-06-25T00:06:48.464Z,21.20
2018-06-25T00:07:48.433Z,18.70
2018-06-25T00:08:48.401Z,22.50
2018-06-25T00:09:48.363Z,21.70
2018-06-25T00:10:48.325Z,19.30
2018-06-25T00:11:48.285Z,20.10
2018-06-25T00:12:48.249Z,22.70
2018-06-25T00:13:48.219Z,18.80
2018-06-25T00:14:48.183Z,17.60
2018-06-25T00:15:48.164Z,19.50
2018-06-25T00:16:48.104Z,20.10
2018-06-25T00:17:48.078Z,19.00
2018-06-25T00:18:48.035Z,19.80
2018-06-25T00:19:48.000Z,17.00
2018-06-25T00:20:47.967Z,17.30
2018-06-25T00:21:47.935Z,17.30
2018-06-25T00:22:47.894Z,17.80
2018-06-25T00:23:47.859Z,17.40
2018-06-25T00:24:47.820Z,18.10
2018-06-25T00:25:47.784Z,17.70
2018-06-25T00:26:47.747Z,16.10
2018-06-25T00:27:47.714Z,18.70
2018-06-25T00:28:47.686Z,16.70
2018-06-25T00:29:47.638Z,20.20
2018-06-25T00:30:47.617Z,14.60
2018-06-25T00:31:47.593Z,16.10
2018-06-25T00:32:47.539Z,17.20
2018-06-25T00:33:47.517Z,15.80
2018-06-25T00:34:47.471Z,18.00
2018-06-25T00:35:47.424Z,15.70
2018-06-25T00:36:47.409Z,17.40
2018-06-25T00:37:47.351Z,19.60
2018-06-25T00:38:47.316Z,16.50
2018-06-25T00:39:47.283Z,17.30
2018-06-25T00:40:47.263Z,19.00
2018-06-25T00:41:47.216Z,16.60
2018-06-25T00:42:47.187Z,18.00
2018-06-25T00:43:47.147Z,17.80
2018-06-25T00:44:47.098Z,19.10
2018-06-25T00:45:47.079Z,17.00
2018-06-25T00:46:47.032Z,17.60
2018-06-25T00:47:46.993Z,15.90
2018-06-25T00:48:46.956Z,15.50
2018-06-25T00:49:46.918Z,18.90
2018-06-25T00:50:46.888Z,15.70
2018-06-25T00:51:46.852Z,17.00
2018-06-25T00:52:46.823Z,21.30
2018-06-25T00:53:46.787Z,17.50
2018-06-25T00:54:46.754Z,17.60
2018-06-25T00:55:46.726Z,16.30
2018-06-25T00:56:46.678Z,19.70
2018-06-25T00:57:46.633Z,17.60
2018-06-25T00:58:46.617Z,14.00
2018-06-25T00:59:46.566Z,16.90
2018-06-25T01:00:46.531Z,15.80
2018-06-25T01:01:46.504Z,16.50
2018-06-25T01:02:46.454Z,17.20
2018-06-25T01:03:46.421Z,17.20
2018-06-25T01:04:46.387Z,14.40
2018-06-25T01:05:46.352Z,18.20
2018-06-25T01:06:46.313Z,14.50
2018-06-25T01:07:46.281Z,17.00
2018-06-25T01:08:46.237Z,18.30
2018-06-25T01:09:46.210Z,15.40
2018-06-25T01:10:46.168Z,15.00
2018-06-25T01:11:46.133Z,15.60
2018-06-25T01:12:46.107Z,16.90
2018-06-25T01:13:46.067Z,17.70
2018-06-25T01:14:46.026Z,16.40
2018-06-25T01:15:45.992Z,17.90
2018-06-25T01:16:45.951Z,18.00
2018-06-25T01:17:45.919Z,20.00
2018-06-25T01:18:45.899Z,16.80
2018-06-25T01:19:45.843Z,16.10
2018-06-25T01:20:45.809Z,16.50
2018-06-25T01:21:45.766Z,16.10
2018-06-25T01:22:45.737Z,19.30
2018-06-25T01:23:45.707Z,18.50
2018-06-25T01:24:45.685Z,15.80
2018-06-25T01:25:45.637Z,16.70
2018-06-25T01:26:45.596Z,17.30
2018-06-25T01:27:45.558Z,19.70
2018-06-25T01:28:45.520Z,17.30
2018-06-25T01:29:45.482Z,17.50
2018-06-25T01:30:45.447Z,18.60
2018-06-25T01:31:45.421Z,16.50
2018-06-25T01:32:45.380Z,22.10
2018-06-25T01:33:45.338Z,17.50
2018-06-25T01:34:45.325Z,18.10
2018-06-25T01:35:45.272Z,16.80
2018-06-25T01:36:45.237Z,16.30
2018-06-25T01:37:45.200Z,17.70
2018-06-25T01:38:45.163Z,16.90
2018-06-25T01:39:45.126Z,18.60
2018-06-25T01:40:45.098Z,19.80
2018-06-25T01:41:45.066Z,21.20
2018-06-25T01:42:45.015Z,20.40
2018-06-25T01:43:44.985Z,21.40
2018-06-25T01:44:44.949Z,16.90
2018-06-25T01:45:44.910Z,16.00
2018-06-25T01:46:44.879Z,15.30
2018-06-25T01:47:44.834Z,15.50
2018-06-25T01:48:44.819Z,19.40
2018-06-25T01:49:44.783Z,16.50
2018-06-25T01:50:44.730Z,20.30
2018-06-25T01:51:44.696Z,16.40
2018-06-25T01:52:44.657Z,16.30
2018-06-25T01:53:44.620Z,16.10
2018-06-25T01:54:44.584Z,16.50
2018-06-25T01:55:44.556Z,18.40
2018-06-25T01:56:44.518Z,15.90
2018-06-25T01:57:44.487Z,16.20
2018-06-25T01:58:44.446Z,16.90
2018-06-25T01:59:44.399Z,14.90
2018-06-25T02:00:44.384Z,19.20
2018-06-25T02:01:44.347Z,15.40
2018-06-25T02:02:44.292Z,15.00
2018-06-25T02:03:44.261Z,18.70
2018-06-25T02:04:44.252Z,16.60
2018-06-25T02:05:44.186Z,17.40
2018-06-25T02:06:44.149Z,14.10
2018-06-25T02:07:44.117Z,15.50
2018-06-25T02:08:44.083Z,14.60
2018-06-25T02:09:44.065Z,17.70
2018-06-25T02:10:44.010Z,14.60
2018-06-25T02:11:43.979Z,14.50
2018-06-25T02:12:43.933Z,17.70
2018-06-25T02:13:43.898Z,15.60
2018-06-25T02:14:43.862Z,16.20
2018-06-25T02:15:43.835Z,15.90
2018-06-25T02:16:43.800Z,16.60
2018-06-25T02:17:43.757Z,16.40
2018-06-25T02:18:43.724Z,17.00
2018-06-25T02:19:43.678Z,16.70
2018-06-25T02:20:43.644Z,14.60
2018-06-25T02:21:43.621Z,18.20
2018-06-25T02:22:43.591Z,14.00
2018-06-25T02:23:43.543Z,14.80
2018-06-25T02:24:43.503Z,15.90
2018-06-25T02:25:43.472Z,17.20
2018-06-25T02:26:43.426Z,15.60
2018-06-25T02:27:43.401Z,13.80
2018-06-25T02:28:43.358Z,13.50
2018-06-25T02:29:43.322Z,17.50
2018-06-25T02:30:43.287Z,13.80
2018-06-25T02:31:43.248Z,15.30
2018-06-25T02:32:43.213Z,16.90
2018-06-25T02:33:43.176Z,15.80
2018-06-25T02:34:43.137Z,14.80
2018-06-25T02:35:43.108Z,15.40
2018-06-25T02:36:43.084Z,15.60
2018-06-25T02:37:43.041Z,15.90
2018-06-25T02:38:43.020Z,13.20
2018-06-25T02:39:42.965Z,15.70
2018-06-25T02:40:42.946Z,17.00
2018-06-25T02:41:42.889Z,15.60
2018-06-25T02:42:42.854Z,13.60
2018-06-25T02:43:42.811Z,14.80
2018-06-25T02:44:42.777Z,16.90
2018-06-25T02:45:42.750Z,15.60
2018-06-25T02:46:42.716Z,16.30
2018-06-25T02:47:42.678Z,19.90
2018-06-25T02:48:42.639Z,14.50
2018-06-25T02:49:42.628Z,17.00
2018-06-25T02:50:42.570Z,16.90
2018-06-25T02:51:42.528Z,15.80
2018-06-25T02:52:42.501Z,16.50
2018-06-25T02:53:42.455Z,20.80
2018-06-25T02:54:42.420Z,16.40
2018-06-25T02:55:42.385Z,16.80
2018-06-25T02:56:42.344Z,15.20
2018-06-25T02:57:42.314Z,18.40
2018-06-25T02:58:42.269Z,19.10
2018-06-25T02:59:42.241Z,17.70
2018-06-25T03:00:42.201Z,19.80
2018-06-25T03:01:42.164Z,21.00
2018-06-25T03:02:42.130Z,17.30
2018-06-25T03:03:42.090Z,16.70
2018-06-25T03:04:42.103Z,16.80
2018-06-25T03:05:42.019Z,22.90
2018-06-25T03:06:41.978Z,22.80
2018-06-25T03:07:41.956Z,20.80
2018-06-25T03:08:41.928Z,19.50
2018-06-25T03:09:41.877Z,20.90
2018-06-25T03:10:41.833Z,20.40
2018-06-25T03:11:41.814Z,17.70
2018-06-25T03:12:41.771Z,22.30
2018-06-25T03:13:41.737Z,19.00
2018-06-25T03:14:41.696Z,20.00
2018-06-25T03:15:41.652Z,20.80
2018-06-25T03:16:41.652Z,20.80
2018-06-25T03:17:41.582Z,21.10
2018-06-25T03:18:41.544Z,23.10
2018-06-25T03:19:41.516Z,20.30
2018-06-25T03:20:41.476Z,19.50
2018-06-25T03:21:41.447Z,24.00
2018-06-25T03:22:41.403Z,22.20
2018-06-25T03:23:41.364Z,24.80
2018-06-25T03:24:41.327Z,23.00
2018-06-25T03:25:41.296Z,21.60
2018-06-25T03:26:41.259Z,24.10
2018-06-25T03:27:41.217Z,21.00
2018-06-25T03:28:41.203Z,21.40
2018-06-25T03:29:41.150Z,21.60
2018-06-25T03:30:41.112Z,18.00
2018-06-25T03:31:41.109Z,21.80
2018-06-25T03:32:41.040Z,21.10
2018-06-25T03:33:41.003Z,20.00
2018-06-25T03:34:40.969Z,22.50
2018-06-25T03:35:40.943Z,18.00
2018-06-25T03:36:40.892Z,18.70
2018-06-25T03:37:40.857Z,19.80
2018-06-25T03:38:40.820Z,21.00
2018-06-25T03:39:40.794Z,22.60
2018-06-25T03:40:40.754Z,20.90
2018-06-25T03:41:40.719Z,22.00
2018-06-25T03:42:40.672Z,20.30
2018-06-25T03:43:40.644Z,19.90
2018-06-25T03:44:40.613Z,18.70
2018-06-25T03:45:40.590Z,17.70
2018-06-25T03:46:40.539Z,19.50
2018-06-25T03:47:40.493Z,17.40
2018-06-25T03:48:40.457Z,17.70
2018-06-25T03:49:40.428Z,19.20
2018-06-25T03:50:40.384Z,22.00
2018-06-25T03:51:40.357Z,24.60
2018-06-25T04:08:03.562Z,16.10
2018-06-25T04:09:03.442Z,27.10
2018-06-25T04:10:03.422Z,30.90
2018-06-25T04:11:03.357Z,27.90
2018-06-25T04:12:03.382Z,27.80
2018-06-25T04:13:03.286Z,26.40
2018-06-25T04:14:03.236Z,26.80
2018-06-25T04:15:03.192Z,25.00
2018-06-25T04:16:04.078Z,25.90
2018-06-25T04:17:03.133Z,22.90
2018-06-25T04:18:03.055Z,26.30
2018-06-25T04:19:03.016Z,25.00
2018-06-25T04:20:03.010Z,22.50
2018-06-25T04:21:02.982Z,23.70
2018-06-25T04:22:02.937Z,21.80
2018-06-25T04:23:02.865Z,20.30
2018-06-25T04:24:02.867Z,23.30
2018-06-25T04:25:02.841Z,18.70
2018-06-25T04:26:02.770Z,25.40
2018-06-25T04:27:02.759Z,20.80
2018-06-25T04:28:02.724Z,19.80
2018-06-25T04:29:02.671Z,21.30
2018-06-25T04:30:02.634Z,20.60
2018-06-25T04:31:02.606Z,24.50
2018-06-25T04:32:02.534Z,19.70
2018-06-25T04:33:02.507Z,26.00
2018-06-25T04:34:02.473Z,22.00
2018-06-25T04:35:02.467Z,19.70
2018-06-25T04:36:02.404Z,22.10
2018-06-25T04:37:02.378Z,19.80
2018-06-25T04:38:02.356Z,21.90
2018-06-25T04:39:02.289Z,20.80
2018-06-25T04:40:02.239Z,19.40
2018-06-25T04:41:02.213Z,20.00
2018-06-25T04:42:02.211Z,22.30
2018-06-25T04:43:02.173Z,20.20
2018-06-25T04:44:02.142Z,21.50
2018-06-25T04:45:02.086Z,21.40
2018-06-25T04:46:02.056Z,17.80
2018-06-25T04:47:02.010Z,22.90
2018-06-25T04:48:01.993Z,17.80
2018-06-25T04:49:01.959Z,19.50
2018-06-25T04:50:01.924Z,16.70
2018-06-25T04:51:01.887Z,20.00
2018-06-25T04:52:01.847Z,19.70
2018-06-25T04:53:01.807Z,19.30
2018-06-25T04:54:01.724Z,19.90
2018-06-25T04:55:01.749Z,20.40
2018-06-25T04:56:01.704Z,21.90
2018-06-25T04:57:01.652Z,20.00
2018-06-25T04:58:01.633Z,19.50
2018-06-25T04:59:01.591Z,18.10
2018-06-25T05:00:01.549Z,15.80
2018-06-25T05:01:01.527Z,16.90
2018-06-25T05:02:01.487Z,18.30
2018-06-25T05:03:01.431Z,16.00
2018-06-25T05:04:01.369Z,17.80
2018-06-25T05:05:01.349Z,16.00
2018-06-25T05:06:01.334Z,15.80
2018-06-25T05:07:01.255Z,20.30
2018-06-25T05:08:01.266Z,18.20
2018-06-25T05:09:01.235Z,18.70
2018-06-25T05:10:01.198Z,18.50
2018-06-25T05:11:01.159Z,19.40
2018-06-25T05:12:01.088Z,20.70
2018-06-25T05:13:01.571Z,23.50
2018-06-25T05:14:01.038Z,18.50
2018-06-25T05:15:01.001Z,21.10
2018-06-25T05:16:00.946Z,21.40
2018-06-25T05:17:00.938Z,20.10
2018-06-25T05:18:00.904Z,18.80
2018-06-25T05:19:00.870Z,19.50
2018-06-25T05:20:00.817Z,23.80
2018-06-25T05:21:00.774Z,22.30
2018-06-25T05:22:00.743Z,21.50
2018-06-25T05:23:00.727Z,19.00
2018-06-25T05:24:00.687Z,18.90
2018-06-25T05:25:00.603Z,20.80
2018-06-25T05:26:00.614Z,25.60
2018-06-25T05:27:00.553Z,23.00
2018-06-25T05:28:00.529Z,22.70
2018-06-25T05:29:00.469Z,23.20
2018-06-25T05:30:00.471Z,26.80
2018-06-25T05:31:00.402Z,23.30
2018-06-25T05:32:00.395Z,20.10
2018-06-25T05:33:00.364Z,19.50
2018-06-25T05:34:00.327Z,22.40
2018-06-25T05:35:00.291Z,16.30
2018-06-25T05:36:00.250Z,18.40
2018-06-25T05:37:00.215Z,19.20
2018-06-25T05:38:00.164Z,17.90
2018-06-25T05:39:00.103Z,19.00
2018-06-25T05:40:00.106Z,18.40
2018-06-25T05:41:00.078Z,18.00
2018-06-25T05:41:59.995Z,15.80
2018-06-25T05:42:59.981Z,19.40
2018-06-25T05:43:59.940Z,17.20
2018-06-25T05:44:59.921Z,16.60
2018-06-25T05:45:59.882Z,18.10
2018-06-25T05:46:59.849Z,17.40
2018-06-25T05:47:59.823Z,16.20
2018-06-25T05:48:59.761Z,17.70
2018-06-25T05:49:59.716Z,15.60
2018-06-25T05:50:59.713Z,16.90
2018-06-25T05:51:59.663Z,19.00
2018-06-25T05:52:59.633Z,19.70
2018-06-25T05:53:59.575Z,19.90
2018-06-25T05:54:59.549Z,19.20
2018-06-25T05:55:59.532Z,19.10
2018-06-25T05:56:59.492Z,20.10
2018-06-25T05:57:59.457Z,19.70
2018-06-25T05:58:59.453Z,25.30
2018-06-25T05:59:59.393Z,19.60
2018-06-25T06:00:59.321Z,23.40
2018-06-25T06:01:59.299Z,20.70
2018-06-25T06:02:59.285Z,21.40
2018-06-25T06:03:59.243Z,22.10
2018-06-25T06:04:59.213Z,18.00
2018-06-25T06:05:59.176Z,18.90
2018-06-25T06:06:59.131Z,18.50
2018-06-25T06:07:59.613Z,19.10
2018-06-25T06:08:59.070Z,16.60
2018-06-25T06:09:59.027Z,15.80
2018-06-25T06:10:58.994Z,16.50
2018-06-25T06:11:58.958Z,17.30
2018-06-25T06:12:58.927Z,20.40
2018-06-25T06:13:58.911Z,19.80
2018-06-25T06:14:58.805Z,21.60
2018-06-25T06:15:58.798Z,20.40
2018-06-25T06:16:58.778Z,21.30
2018-06-25T06:17:58.743Z,19.00
2018-06-25T06:18:58.704Z,18.00
2018-06-25T06:19:58.665Z,21.30
2018-06-25T06:20:58.614Z,23.30
2018-06-25T06:21:58.596Z,21.20
2018-06-25T06:22:58.533Z,20.20
2018-06-25T06:23:58.526Z,21.20
2018-06-25T06:24:58.486Z,22.60
2018-06-25T06:25:58.447Z,21.80
2018-06-25T06:26:58.398Z,22.20
2018-06-25T06:27:58.359Z,21.90
2018-06-25T06:28:58.340Z,24.00
2018-06-25T06:29:58.301Z,24.80
2018-06-25T06:30:58.252Z,22.50
2018-06-25T06:31:58.260Z,22.90
2018-06-25T06:32:58.169Z,22.30
2018-06-25T06:33:58.168Z,20.00
2018-06-25T06:34:58.086Z,20.80
2018-06-25T06:35:58.062Z,23.00
2018-06-25T06:36:58.044Z,19.80
2018-06-25T06:37:58.021Z,22.60
2018-06-25T06:38:57.969Z,21.40
2018-06-25T06:39:57.955Z,20.60
2018-06-25T06:40:57.905Z,19.30
2018-06-25T06:41:57.855Z,21.50
2018-06-25T06:42:57.851Z,21.10
2018-06-25T06:43:57.807Z,19.70
2018-06-25T06:44:57.771Z,19.40
2018-06-25T06:45:57.735Z,18.60
2018-06-25T06:46:57.701Z,17.90
2018-06-25T06:47:57.613Z,18.50
2018-06-25T06:48:57.591Z,20.10
2018-06-25T06:49:57.612Z,18.10
2018-06-25T06:50:57.550Z,16.30
2018-06-25T06:51:57.518Z,15.30
2018-06-25T06:52:57.478Z,18.10
2018-06-25T06:53:57.393Z,18.30
2018-06-25T06:54:57.410Z,15.80
2018-06-25T06:55:57.377Z,18.20
2018-06-25T06:56:57.345Z,14.70
2018-06-25T06:57:57.287Z,15.30
2018-06-25T06:58:57.269Z,15.70
2018-06-25T06:59:57.232Z,15.20
2018-06-25T07:00:57.186Z,15.40
2018-06-25T07:01:57.153Z,16.20
2018-06-25T07:02:57.113Z,13.90
2018-06-25T07:03:57.085Z,11.00
2018-06-25T07:04:57.051Z,10.20
2018-06-25T07:05:57.018Z,9.40
2018-06-25T07:06:56.978Z,8.40
2018-06-25T07:07:56.928Z,9.30
2018-06-25T07:08:56.889Z,8.90
2018-06-25T07:09:56.844Z,8.50
2018-06-25T07:10:56.839Z,8.00
2018-06-25T07:11:56.801Z,9.90
2018-06-25T07:12:56.722Z,8.90
2018-06-25T07:13:56.727Z,7.60
2018-06-25T07:14:56.646Z,8.90
2018-06-25T07:15:56.628Z,9.70
2018-06-25T07:16:56.598Z,10.40
2018-06-25T07:17:56.552Z,10.90
2018-06-25T07:18:56.544Z,11.40
2018-06-25T07:19:56.522Z,10.40
2018-06-25T07:20:56.477Z,10.40
2018-06-25T07:21:56.447Z,12.70
2018-06-25T07:22:56.417Z,10.80
2018-06-25T07:23:56.357Z,11.40
2018-06-25T07:24:56.338Z,9.00
2018-06-25T07:25:56.255Z,10.50
2018-06-25T07:26:56.262Z,8.30
2018-06-25T07:27:56.244Z,8.70
2018-06-25T07:28:56.288Z,10.10
2018-06-25T07:29:56.164Z,11.10
2018-06-25T07:30:56.122Z,10.80
2018-06-25T07:31:56.083Z,10.90
2018-06-25T07:32:56.015Z,11.80
2018-06-25T07:33:55.973Z,10.10
2018-06-25T07:34:55.983Z,8.90
2018-06-25T07:35:55.947Z,8.20
2018-06-25T07:36:55.902Z,8.20
2018-06-25T07:37:55.834Z,6.40
2018-06-25T07:38:55.819Z,6.70
2018-06-25T07:39:55.813Z,5.60
2018-06-25T07:40:55.752Z,6.20
2018-06-25T07:41:55.720Z,7.10
2018-06-25T07:42:55.684Z,6.40
2018-06-25T07:43:55.660Z,9.90
2018-06-25T07:44:55.596Z,6.60
2018-06-25T07:45:55.599Z,7.50
2018-06-25T07:46:55.537Z,7.00
2018-06-25T07:47:56.114Z,6.70
2018-06-25T07:48:55.437Z,7.00
2018-06-25T07:49:55.414Z,6.80
2018-06-25T07:50:55.373Z,7.10
2018-06-25T07:51:55.377Z,7.10
2018-06-25T07:52:55.296Z,12.60
2018-06-25T07:53:55.293Z,15.50
2018-06-25T07:54:55.219Z,15.20
2018-06-25T07:55:55.235Z,19.30
2018-06-25T07:56:55.198Z,22.80
2018-06-25T07:57:55.163Z,21.40
2018-06-25T07:58:55.113Z,21.10
2018-06-25T07:59:55.092Z,19.40
2018-06-25T08:00:55.055Z,14.20
2018-06-25T08:01:55.018Z,18.10
2018-06-25T08:02:54.974Z,16.90
2018-06-25T08:03:54.951Z,18.40
2018-06-25T08:04:54.909Z,21.50
2018-06-25T08:05:54.875Z,20.00
2018-06-25T08:06:54.838Z,22.80
2018-06-25T08:07:54.796Z,20.70
2018-06-25T08:08:54.730Z,20.00
2018-06-25T08:09:54.730Z,20.20
2018-06-25T08:10:54.708Z,17.90
2018-06-25T08:11:54.661Z,18.60
2018-06-25T08:12:54.607Z,20.50
2018-06-25T08:13:54.593Z,19.40
2018-06-25T08:14:54.559Z,17.80
2018-06-25T08:15:54.494Z,15.10
2018-06-25T08:16:55.106Z,17.30
2018-06-25T08:17:54.460Z,15.80
2018-06-25T08:18:54.423Z,14.80
2018-06-25T08:19:54.352Z,15.70
2018-06-25T08:20:54.328Z,17.40
2018-06-25T08:21:54.335Z,17.20
2018-06-25T08:22:54.262Z,15.70
2018-06-25T08:23:54.243Z,16.00
2018-06-25T08:24:54.199Z,14.80
2018-06-25T08:25:54.170Z,16.20
2018-06-25T08:26:54.116Z,14.00
2018-06-25T08:27:54.096Z,16.70
2018-06-25T08:28:54.031Z,17.00
2018-06-25T08:29:54.080Z,16.50
2018-06-25T08:30:54.000Z,15.60
2018-06-25T08:31:53.939Z,13.60
2018-06-25T08:32:53.900Z,14.40
2018-06-25T08:33:53.928Z,14.40
2018-06-25T08:34:53.819Z,14.70
2018-06-25T08:35:53.789Z,17.60
2018-06-25T08:36:53.776Z,16.60
2018-06-25T08:37:53.732Z,14.90
2018-06-25T08:38:53.701Z,17.30
2018-06-25T08:39:53.668Z,17.00
2018-06-25T08:40:53.621Z,18.80
2018-06-25T08:41:53.606Z,15.90
2018-06-25T08:42:53.537Z,16.00
2018-06-25T08:43:53.506Z,15.90
2018-06-25T08:44:53.502Z,16.90
2018-06-25T08:45:54.218Z,17.60
2018-06-25T08:46:53.420Z,16.10
2018-06-25T08:47:53.352Z,16.70
2018-06-25T08:48:53.333Z,15.80
2018-06-25T08:49:53.289Z,16.00
2018-06-25T08:50:53.245Z,15.30
2018-06-25T08:51:53.231Z,16.00
2018-06-25T08:52:53.201Z,16.60
2018-06-25T08:53:53.157Z,13.60
2018-06-25T08:54:53.151Z,15.80
2018-06-25T08:55:53.120Z,14.70
2018-06-25T08:56:53.126Z,16.40
2018-06-25T08:57:53.016Z,17.20
2018-06-25T08:58:53.043Z,18.40
2018-06-25T08:59:52.967Z,18.20
2018-06-25T09:00:52.935Z,21.30
2018-06-25T09:01:52.874Z,25.60
2018-06-25T09:02:52.859Z,27.50
2018-06-25T09:03:52.793Z,27.30
2018-06-25T09:04:52.792Z,26.90
2018-06-25T09:05:52.760Z,29.10
2018-06-25T09:06:52.694Z,27.70
2018-06-25T09:07:52.689Z,30.30
2018-06-25T09:08:52.624Z,27.60
2018-06-25T09:09:52.680Z,27.90
2018-06-25T09:10:52.548Z,26.70
2018-06-25T09:11:52.506Z,26.40
2018-06-25T09:12:52.492Z,23.50
2018-06-25T09:13:52.438Z,24.90
2018-06-25T09:14:52.425Z,24.70
2018-06-25T09:15:52.368Z,24.70
2018-06-25T09:16:52.334Z,23.20
2018-06-25T09:17:52.307Z,23.60
2018-06-25T09:18:52.263Z,24.70
2018-06-25T09:19:52.242Z,22.50
2018-06-25T09:20:52.195Z,24.60
2018-06-25T09:21:52.168Z,22.00
2018-06-25T09:22:52.130Z,21.60
2018-06-25T09:23:52.158Z,19.20
2018-06-25T09:24:52.055Z,21.90
2018-06-25T09:25:52.020Z,20.80
2018-06-25T09:26:52.006Z,22.30
2018-06-25T09:27:51.990Z,23.50
2018-06-25T09:28:51.917Z,20.80
2018-06-25T09:29:51.881Z,24.10
2018-06-25T09:30:51.844Z,25.40
2018-06-25T09:31:51.817Z,24.70
2018-06-25T09:32:51.779Z,25.10
2018-06-25T09:33:51.747Z,26.60
2018-06-25T09:34:51.719Z,27.00
2018-06-25T09:35:51.674Z,24.30
2018-06-25T09:36:51.638Z,25.90
2018-06-25T09:37:51.607Z,27.60
2018-06-25T09:38:51.565Z,28.60
2018-06-25T09:39:51.543Z,25.80
2018-06-25T09:40:51.529Z,27.80
2018-06-25T09:41:51.468Z,25.70
2018-06-25T09:42:51.445Z,25.10
2018-06-25T09:43:51.400Z,27.30
2018-06-25T09:44:51.361Z,24.90
2018-06-25T09:45:51.372Z,25.00
2018-06-25T09:46:51.310Z,25.80
2018-06-25T09:47:51.260Z,23.90
2018-06-25T09:48:51.223Z,26.50
2018-06-25T09:49:51.190Z,26.30
2018-06-25T09:50:51.152Z,26.70
2018-06-25T09:51:51.129Z,25.20
2018-06-25T09:52:51.085Z,25.60
2018-06-25T09:53:51.056Z,28.10
2018-06-25T09:54:51.098Z,27.50
2018-06-25T09:55:50.980Z,28.10
2018-06-25T09:56:50.946Z,28.00
2018-06-25T09:57:50.915Z,30.20
2018-06-25T09:58:50.876Z,31.80
2018-06-25T09:59:50.865Z,29.80
2018-06-25T10:00:50.810Z,31.60
2018-06-25T10:01:50.793Z,29.60
2018-06-25T10:02:50.738Z,28.70
2018-06-25T10:03:50.728Z,29.70
2018-06-25T10:04:50.672Z,30.90
2018-06-25T10:05:50.640Z,26.50
2018-06-25T10:06:50.617Z,29.50
2018-06-25T10:07:50.573Z,29.30
2018-06-25T10:21:16.357Z,24.30
2018-06-25T10:22:16.281Z,32.60
2018-06-25T10:23:16.244Z,33.90
2018-06-25T10:24:16.203Z,31.50
2018-06-25T10:25:16.188Z,30.80
2018-06-25T10:26:16.123Z,32.40
2018-06-25T10:27:16.088Z,33.40
2018-06-25T10:28:16.050Z,26.70
2018-06-25T10:29:16.018Z,27.50
2018-06-25T10:30:15.974Z,29.10
2018-06-25T10:31:15.940Z,26.60
2018-06-25T10:32:15.904Z,27.80
2018-06-25T10:33:15.871Z,28.00
2018-06-25T10:34:15.834Z,27.00
2018-06-25T10:35:15.798Z,24.80
2018-06-25T10:36:15.761Z,25.30
2018-06-25T10:37:15.737Z,24.90
2018-06-25T10:38:15.689Z,26.00
2018-06-25T10:39:15.667Z,25.80
2018-06-25T10:40:15.622Z,24.20
2018-06-25T10:41:15.589Z,24.20
2018-06-25T10:42:15.573Z,31.00
2018-06-25T10:43:15.519Z,25.60
2018-06-25T10:44:15.484Z,29.00
2018-06-25T10:45:15.447Z,24.90
2018-06-25T10:46:15.415Z,30.70
2018-06-25T10:47:15.381Z,29.00
2018-06-25T10:48:15.350Z,28.60
2018-06-25T10:49:15.314Z,30.60
2018-06-25T10:50:15.273Z,31.50
2018-06-25T10:51:15.241Z,30.40
2018-06-25T10:52:15.211Z,35.00
2018-06-25T10:53:15.168Z,29.40
2018-06-25T10:54:15.142Z,31.10
2018-06-25T10:55:15.109Z,29.80
2018-06-25T10:56:15.080Z,30.20
2018-06-25T10:57:15.058Z,31.20
2018-06-25T10:58:15.000Z,35.00
2018-06-25T10:59:14.972Z,32.00
2018-06-25T11:00:15.167Z,31.70
2018-06-25T11:01:14.916Z,33.70
2018-06-25T11:02:14.863Z,32.10
2018-06-25T11:03:14.829Z,30.70
2018-06-25T11:04:14.796Z,31.80
2018-06-25T11:05:14.761Z,30.50
2018-06-25T11:06:14.729Z,30.40
2018-06-25T11:07:14.737Z,29.40
2018-06-25T11:08:14.663Z,33.30
2018-06-25T11:09:14.626Z,32.80
2018-06-25T11:10:14.591Z,31.50
2018-06-25T11:11:14.560Z,33.80
2018-06-25T11:12:14.525Z,33.00
2018-06-25T11:13:14.487Z,35.00
2018-06-25T11:14:14.455Z,31.40
2018-06-25T11:15:14.432Z,31.70
2018-06-25T11:16:14.385Z,33.50
2018-06-25T11:17:14.350Z,32.60
2018-06-25T11:18:14.321Z,32.80
2018-06-25T11:19:14.290Z,32.10
2018-06-25T11:20:14.254Z,33.20
2018-06-25T11:21:14.218Z,36.60
2018-06-25T11:22:14.183Z,31.90
2018-06-25T11:23:14.145Z,32.60
2018-06-25T11:24:14.113Z,34.10
2018-06-25T11:25:14.088Z,33.10
2018-06-25T11:26:14.049Z,31.70
2018-06-25T11:27:14.060Z,31.90
2018-06-25T11:28:13.994Z,32.40
2018-06-25T11:29:13.949Z,30.90
2018-06-25T11:30:13.923Z,30.00
2018-06-25T11:31:13.879Z,32.00
2018-06-25T11:32:13.850Z,31.20
2018-06-25T11:33:13.813Z,35.90
2018-06-25T11:34:13.778Z,32.30
2018-06-25T11:35:13.743Z,35.70
2018-06-25T11:36:13.712Z,32.70
2018-06-25T11:37:13.678Z,36.50
2018-06-25T11:38:13.650Z,35.70
2018-06-25T11:39:13.614Z,33.70
2018-06-25T11:40:13.592Z,35.00
2018-06-25T11:41:13.547Z,34.00
2018-06-25T11:42:13.511Z,32.10
2018-06-25T11:43:13.477Z,35.70
2018-06-25T11:44:13.453Z,34.00
2018-06-25T11:45:13.413Z,35.00
2018-06-25T11:46:13.382Z,33.70
2018-06-25T11:47:13.353Z,35.60
2018-06-25T11:48:13.310Z,34.00
2018-06-25T11:49:13.277Z,38.10
2018-06-25T11:50:13.251Z,38.20
2018-06-25T11:51:13.221Z,37.00
2018-06-25T11:52:13.207Z,38.40
2018-06-25T11:53:13.152Z,39.40
2018-06-25T11:54:13.119Z,35.20
2018-06-25T11:55:13.077Z,36.90
2018-06-25T11:56:13.044Z,38.80
2018-06-25T11:57:13.013Z,38.00
2018-06-25T11:58:12.981Z,40.30
2018-06-25T11:59:12.948Z,40.10
2018-06-25T12:00:12.924Z,38.10
2018-06-25T12:01:12.879Z,43.80
2018-06-25T12:02:12.955Z,39.90
2018-06-25T12:03:12.956Z,41.30
2018-06-25T12:04:12.786Z,38.20
2018-06-25T12:05:12.749Z,34.60
2018-06-25T12:06:12.712Z,35.70
2018-06-25T12:07:12.678Z,39.30
2018-06-25T12:08:12.644Z,36.20
2018-06-25T12:09:12.615Z,33.80
2018-06-25T12:10:12.592Z,36.40
2018-06-25T12:11:12.551Z,39.60
2018-06-25T12:12:12.559Z,37.00
2018-06-25T12:13:12.483Z,31.60
2018-06-25T12:14:12.459Z,33.90
2018-06-25T12:15:12.414Z,33.20
2018-06-25T12:16:12.385Z,33.60
2018-06-25T12:17:12.349Z,36.80
2018-06-25T12:18:12.320Z,35.10
2018-06-25T12:19:12.291Z,36.30
2018-06-25T12:20:12.316Z,35.40
2018-06-25T12:21:12.221Z,34.70
2018-06-25T12:22:12.197Z,33.10
2018-06-25T12:23:12.166Z,33.50
2018-06-25T12:24:12.136Z,29.70
2018-06-25T12:25:12.091Z,33.40
2018-06-25T12:26:12.053Z,27.20
2018-06-25T12:27:12.019Z,25.70
2018-06-25T12:28:11.988Z,26.70
2018-06-25T12:29:11.954Z,26.80
2018-06-25T12:30:11.984Z,25.30
2018-06-25T12:31:11.893Z,28.10
2018-06-25T12:32:11.934Z,30.40
2018-06-25T12:33:11.827Z,27.50
2018-06-25T12:34:11.808Z,23.00
2018-06-25T12:35:11.782Z,25.00
2018-06-25T12:36:11.730Z,24.20
2018-06-25T12:37:11.702Z,23.50
2018-06-25T12:38:11.665Z,25.00
2018-06-25T12:39:11.636Z,26.30
2018-06-25T12:40:11.593Z,24.00
2018-06-25T12:41:11.569Z,25.80
2018-06-25T12:42:11.533Z,26.60
2018-06-25T12:43:11.548Z,24.20
2018-06-25T12:44:11.468Z,23.20
2018-06-25T12:45:11.435Z,24.40
2018-06-25T12:46:11.399Z,25.70
2018-06-25T12:47:11.373Z,25.20
2018-06-25T12:48:11.342Z,29.90
2018-06-25T12:49:11.301Z,25.80
2018-06-25T12:50:11.278Z,23.50
2018-06-25T12:51:11.241Z,28.20
2018-06-25T12:52:11.202Z,28.20
2018-06-25T12:53:11.170Z,25.10
2018-06-25T12:54:11.142Z,25.90
2018-06-25T12:55:11.113Z,25.60
2018-06-25T12:56:11.078Z,24.80
2018-06-25T12:57:11.077Z,29.80
2018-06-25T12:58:11.055Z,25.20
2018-06-25T12:59:10.980Z,23.00
2018-06-25T13:00:10.941Z,21.90
2018-06-25T13:01:10.912Z,19.30
2018-06-25T13:02:10.883Z,17.10
2018-06-25T13:03:10.849Z,21.90
2018-06-25T13:04:10.823Z,24.60
2018-06-25T13:05:10.781Z,17.80
2018-06-25T13:06:10.746Z,18.50
2018-06-25T13:07:10.714Z,16.70
2018-06-25T13:08:10.697Z,19.30
2018-06-25T13:09:10.691Z,16.10
2018-06-25T13:10:10.616Z,14.30
2018-06-25T13:11:10.581Z,16.00
2018-06-25T13:12:10.547Z,17.50
2018-06-25T13:13:10.517Z,15.70
2018-06-25T13:14:10.487Z,18.30
2018-06-25T13:15:10.457Z,18.70
2018-06-25T13:16:10.426Z,16.60
2018-06-25T13:17:10.389Z,15.90
2018-06-25T13:18:10.358Z,15.00
2018-06-25T13:19:10.319Z,16.10
2018-06-25T13:20:10.290Z,17.90
2018-06-25T13:21:10.257Z,15.20